Impacts METAR Board
IDs:

KSAT - San Antonio Intl, TX, US

Updated at: 0300 UTC 18 Jan 2022
Potential Impact None Slight Moderate High
Time 17/15Z 17/16Z 17/17Z 17/18Z 17/19Z 17/20Z 17/21Z 17/22Z 17/23Z 18/00Z 18/01Z 18/02Z 18/03Z
Temp44 54 60 63 65 68 69 70 68 62 55 53 48
Dewpt21 21 18 18 18 19 19 17 17 18 19 23 26
Altim30.17 30.19 30.19 30.17 30.14 30.10 30.08 30.07 30.06 30.05 30.06 30.07 30.08
VIS10 10 10 10 10 10 10 10 10 10 10 10 10
CIG-- -- -- -- -- -- -- -- -- 250 -- -- 250
CoverCLRFEWFEWFEWCLRCLRCLRCLRFEWBKNSCTSCTBKN
FltCatVFRVFRVFRVFRVFRVFRVFRVFRVFRVFRVFRVFRVFR
WX--------------------------
WDir3202001801802101801701701801501303200
WSpd4 3 3 7 4 6 8 12 9 5 4 3 0
WGst-- -- -- -- -- -- -- 15 -- -- -- -- --
Raw hourly METARs
KSAT 171451Z 32004KT 10SM CLR 07/M06 A3017 RMK AO2 SLP210 T00671061 51021
KSAT 171551Z 20003KT 10SM FEW250 12/M06 A3019 RMK AO2 SLP214 T01221061
KSAT 171651Z 18003KT 10SM FEW250 16/M08 A3019 RMK AO2 SLP214 T01561078
KSAT 171751Z 18007KT 150V210 10SM FEW250 17/M08 A3017 RMK AO2 SLP207 T01721078 10172 20000 50000
KSAT 171851Z 21004KT 10SM CLR 18/M08 A3014 RMK AO2 SLP195 T01831078
KSAT 171951Z 18006KT 10SM CLR 20/M07 A3010 RMK AO2 SLP182 T02001072
KSAT 172051Z 17008KT 10SM CLR 21/M07 A3008 RMK AO2 SLP177 T02061072 56030
KSAT 172151Z 17012G15KT 10SM CLR 21/M08 A3007 RMK AO2 SLP171 T02111083
KSAT 172251Z 18009KT 10SM FEW250 20/M08 A3006 RMK AO2 SLP170 T02001083
KSAT 172351Z 15005KT 10SM BKN250 17/M08 A3005 RMK AO2 SLP169 T01671078 10211 20161 56009
KSAT 180051Z 13004KT 10SM SCT250 13/M07 A3006 RMK AO2 SLP171 T01281072
KSAT 180151Z 32003KT 10SM SCT250 12/M05 A3007 RMK AO2 SLP174 T01171050
KSAT 180251Z 00000KT 10SM BKN250 09/M03 A3008 RMK AO2 SLP178 T00891033 53008